Time;durP1;ratioP1;P1;durP2;ratioP2;P2;SDS_P1;SDS_P2;PMS_P1;PMS_P2;Temp;Humidity;BMP_temperature;BMP_pressure;BME280_temperature;BME280_humidity;BME280_pressure;Samples;Min_cycle;Max_cycle;Signal;HPM_P1;HPM_P2
2022/03/10 00:00:47;;;;;;;14.68;6.55;;;;;;;0.14;61.80;100920.13;5019745;28;20057;-59
2022/03/10 00:03:20;;;;;;;13.05;6.75;;;;;;;0.40;61.28;100906.50;5019644;28;20267;-59
2022/03/10 00:05:51;;;;;;;12.82;6.85;;;;;;;0.65;60.98;100909.94;5019876;28;20291;-59
2022/03/10 00:08:21;;;;;;;18.42;7.47;;;;;;;0.90;60.92;100906.50;5019267;28;20049;-60
2022/03/10 00:10:52;;;;;;;14.88;6.88;;;;;;;1.18;60.49;100903.09;5019071;28;20068;-60
2022/03/10 00:13:26;;;;;;;21.63;6.32;;;;;;;1.38;60.12;100902.88;5019428;28;20057;-60
2022/03/10 00:15:57;;;;;;;10.82;6.35;;;;;;;1.45;60.03;100899.66;5019171;28;20057;-60
2022/03/10 00:18:30;;;;;;;18.77;8.40;;;;;;;1.53;60.42;100900.75;5019529;28;20053;-60
2022/03/10 00:21:01;;;;;;;17.27;7.38;;;;;;;1.65;60.16;100901.13;5019151;28;20081;-60
2022/03/10 00:23:31;;;;;;;15.65;7.05;;;;;;;1.78;59.94;100911.78;5019260;28;20057;-59
2022/03/10 00:26:02;;;;;;;16.40;6.85;;;;;;;1.85;59.38;100893.13;5019532;28;20084;-61
2022/03/10 00:28:33;;;;;;;19.38;7.38;;;;;;;1.82;59.32;100887.84;5019344;28;20335;-61
2022/03/10 00:31:03;;;;;;;17.73;8.05;;;;;;;1.94;58.95;100893.34;5019123;28;20116;-60
2022/03/10 00:33:36;;;;;;;16.33;7.45;;;;;;;2.02;59.00;100886.75;5018990;28;20133;-60
2022/03/10 00:36:07;;;;;;;16.95;6.97;;;;;;;1.95;58.80;100848.72;5019127;28;20104;-60
2022/03/10 00:38:38;;;;;;;12.70;7.18;;;;;;;2.26;59.07;100880.50;5018853;28;20114;-59
2022/03/10 00:41:10;;;;;;;16.80;6.57;;;;;;;2.41;59.16;100880.91;5018711;28;20065;-60
2022/03/10 00:43:40;;;;;;;12.80;6.22;;;;;;;2.50;58.75;100880.28;5018773;28;20077;-59
2022/03/10 00:46:11;;;;;;;16.58;7.40;;;;;;;2.59;58.38;100880.50;5018223;28;20110;-60
2022/03/10 00:48:43;;;;;;;17.55;8.07;;;;;;;2.62;58.80;100874.56;5018777;28;20305;-60
2022/03/10 00:51:14;;;;;;;14.77;7.55;;;;;;;2.75;58.41;100872.34;5018684;28;20142;-60
2022/03/10 00:53:45;;;;;;;11.88;7.25;;;;;;;2.80;58.81;100869.88;5018722;28;20089;-60
2022/03/10 00:56:16;;;;;;;13.57;6.95;;;;;;;2.83;58.59;100862.22;5018656;28;20056;-60
2022/03/10 00:58:47;;;;;;;17.98;6.88;;;;;;;2.97;58.33;100860.84;5018460;28;20104;-60
2022/03/10 01:01:18;;;;;;;16.80;7.40;;;;;;;3.03;58.34;100868.72;5018441;28;20384;-60
2022/03/10 01:03:50;;;;;;;18.20;6.85;;;;;;;3.12;58.48;100859.44;5017739;28;20081;-60
2022/03/10 01:06:21;;;;;;;13.52;7.28;;;;;;;3.24;58.28;100857.13;5018521;28;20085;-61
2022/03/10 01:08:52;;;;;;;19.90;7.82;;;;;;;3.42;58.44;100857.56;5018257;28;20073;-60
2022/03/10 01:11:23;;;;;;;19.55;7.72;;;;;;;3.50;57.75;100856.88;5018213;28;20057;-61
2022/03/10 01:13:53;;;;;;;18.85;7.43;;;;;;;3.56;57.65;100849.25;5018595;28;20070;-61
2022/03/10 01:16:24;;;;;;;21.10;8.20;;;;;;;3.60;57.21;100832.97;5018268;28;20104;-61
2022/03/10 01:18:57;;;;;;;22.75;7.90;;;;;;;3.75;57.36;100842.75;5018198;28;20136;-61
2022/03/10 01:21:27;;;;;;;14.55;7.88;;;;;;;3.89;56.80;100833.53;5018351;28;20053;-62
2022/03/10 01:23:58;;;;;;;18.42;8.57;;;;;;;4.02;56.68;100829.47;5017981;28;20085;-62
2022/03/10 01:26:29;;;;;;;17.08;9.05;;;;;;;4.14;56.74;100824.56;5018091;28;20045;-61
2022/03/10 01:28:59;;;;;;;21.75;9.00;;;;;;;4.24;56.18;100825.59;5018476;28;20109;-61
2022/03/10 01:31:30;;;;;;;22.65;9.65;;;;;;;4.35;55.85;100823.22;5018021;28;20081;-63
2022/03/10 01:34:02;;;;;;;18.60;10.38;;;;;;;4.49;55.24;100814.88;5018526;28;20128;-62
2022/03/10 01:36:35;;;;;;;19.00;8.77;;;;;;;4.62;54.51;100803.00;5017906;28;20057;-62
2022/03/10 01:39:05;;;;;;;18.73;9.90;;;;;;;4.76;54.17;100806.66;5018132;28;20248;-62
2022/03/10 01:41:38;;;;;;;24.48;10.30;;;;;;;4.58;53.52;100774.44;5017900;28;20118;-62
2022/03/10 01:44:11;;;;;;;25.52;11.70;;;;;;;4.87;53.43;100811.16;5018096;28;20069;-62
2022/03/10 01:46:41;;;;;;;28.40;11.88;;;;;;;4.99;53.32;100806.13;5018047;28;20061;-60
2022/03/10 01:49:14;;;;;;;28.25;13.13;;;;;;;5.09;53.27;100805.47;5017796;28;20104;-61
2022/03/10 01:51:45;;;;;;;39.15;13.80;;;;;;;5.12;52.71;100795.13;5017944;28;20053;-60
2022/03/10 01:54:16;;;;;;;27.85;12.82;;;;;;;5.13;52.59;100802.03;5030165;28;20072;-60
2022/03/10 01:56:48;;;;;;;29.98;12.43;;;;;;;5.23;52.64;100799.59;5037157;28;20088;-60
2022/03/10 01:59:20;;;;;;;24.33;13.05;;;;;;;5.23;52.52;100797.00;5034249;28;20076;-60
2022/03/10 02:01:51;;;;;;;29.52;14.38;;;;;;;5.17;52.58;100788.28;5037273;28;20343;-59
2022/03/10 02:04:24;;;;;;;31.90;15.93;;;;;;;5.10;52.61;100790.78;5033849;28;20325;-59
2022/03/10 02:06:55;;;;;;;30.15;14.25;;;;;;;5.18;53.44;100787.44;5023259;28;20305;-58
2022/03/10 02:12:14;;;;;;;27.02;14.98;;;;;;;5.46;52.46;100781.75;5023892;28;20167;-59
2022/03/10 02:17:32;;;;;;;32.08;16.17;;;;;;;5.65;50.98;100780.28;5027906;28;20070;-60
2022/03/10 02:20:05;;;;;;;31.77;16.77;;;;;;;5.66;51.20;100771.63;5027697;28;20084;-60
2022/03/10 02:22:37;;;;;;;38.25;17.55;;;;;;;5.73;50.24;100765.66;5027602;28;20360;-60
2022/03/10 02:25:10;;;;;;;36.05;17.83;;;;;;;5.79;48.90;100773.50;5027639;28;20120;-60
2022/03/10 02:27:41;;;;;;;41.85;20.77;;;;;;;5.77;49.03;100770.91;5028231;28;20061;-60
2022/03/10 02:30:12;;;;;;;39.55;18.15;;;;;;;5.47;48.35;100719.56;5027699;28;20358;-60
2022/03/10 02:32:43;;;;;;;34.20;18.27;;;;;;;5.60;47.92;100737.00;5027802;28;20061;-60
2022/03/10 02:35:14;;;;;;;34.47;18.77;;;;;;;5.83;47.66;100759.72;5027790;28;20068;-60
2022/03/10 02:37:47;;;;;;;34.35;17.42;;;;;;;5.80;47.36;100755.38;5027298;28;20096;-64
2022/03/10 02:40:18;;;;;;;32.90;14.63;;;;;;;5.79;47.04;100757.94;5026781;28;20244;-59
2022/03/10 02:42:49;;;;;;;26.65;13.35;;;;;;;5.50;46.40;100714.41;5027411;28;20128;-61
2022/03/10 02:45:20;;;;;;;22.50;12.18;;;;;;;5.72;46.92;100756.16;5027735;28;20061;-60
2022/03/10 02:47:50;;;;;;;28.08;12.52;;;;;;;5.72;47.51;100756.16;5027426;28;20085;-59
2022/03/10 02:50:21;;;;;;;22.60;12.60;;;;;;;5.76;48.41;100756.19;5028106;28;20352;-61
2022/03/10 02:52:53;;;;;;;24.10;11.57;;;;;;;5.73;48.21;100747.50;5027571;28;20063;-60
2022/03/10 02:55:27;;;;;;;27.27;11.98;;;;;;;5.65;48.89;100733.59;5027519;28;20108;-60
2022/03/10 02:57:58;;;;;;;27.15;12.00;;;;;;;5.69;48.18;100745.72;5035318;28;20076;-61
2022/03/10 03:00:29;;;;;;;20.38;10.82;;;;;;;5.72;48.32;100735.41;5032826;28;20120;-59
2022/03/10 03:02:59;;;;;;;22.85;10.68;;;;;;;5.81;47.87;100730.31;5038874;28;20049;-60
2022/03/10 03:05:30;;;;;;;20.70;10.32;;;;;;;5.77;47.49;100733.75;5039305;28;20045;-59
2022/03/10 03:08:02;;;;;;;24.10;9.75;;;;;;;5.76;47.16;100726.78;5040287;28;20057;-60
2022/03/10 03:10:36;;;;;;;17.30;9.45;;;;;;;5.60;47.64;100705.91;5039956;28;20061;-59
2022/03/10 03:13:07;;;;;;;19.27;9.02;;;;;;;5.69;47.94;100709.44;5039934;28;20104;-60
2022/03/10 03:15:38;;;;;;;17.88;8.90;;;;;;;5.73;48.19;100724.19;5039859;28;20045;-59
2022/03/10 03:18:08;;;;;;;16.38;8.13;;;;;;;5.77;47.52;100718.19;5039916;28;20065;-60
2022/03/10 03:20:39;;;;;;;17.40;7.50;;;;;;;5.80;47.93;100723.38;5039887;28;20080;-60
2022/03/10 03:23:11;;;;;;;16.63;8.80;;;;;;;5.46;47.91;100665.97;5040001;28;20064;-59
2022/03/10 03:25:42;;;;;;;13.65;6.82;;;;;;;5.69;48.77;100710.31;5039350;28;20057;-60
2022/03/10 03:28:13;;;;;;;17.33;7.40;;;;;;;5.61;49.11;100706.75;5040200;28;20056;-59
2022/03/10 03:30:44;;;;;;;13.93;7.28;;;;;;;5.54;49.45;100703.25;5040229;28;20120;-59
2022/03/10 03:33:14;;;;;;;17.25;6.50;;;;;;;5.50;48.74;100701.47;5040289;28;20065;-60
2022/03/10 03:35:45;;;;;;;17.27;6.30;;;;;;;5.41;48.43;100688.38;5039960;28;20045;-60
2022/03/10 03:38:17;;;;;;;13.20;6.75;;;;;;;5.36;48.82;100695.25;5039847;28;20051;-59
2022/03/10 03:40:48;;;;;;;15.00;7.15;;;;;;;5.40;48.93;100684.06;5040026;28;20404;-60
2022/03/10 03:43:19;;;;;;;14.90;7.45;;;;;;;5.30;49.05;100684.81;5039837;28;20228;-59
2022/03/10 03:45:50;;;;;;;14.23;7.00;;;;;;;5.38;49.31;100689.22;5039690;28;20045;-60
2022/03/10 03:48:21;;;;;;;16.88;7.22;;;;;;;5.40;49.44;100684.06;5039684;28;20057;-59
2022/03/10 03:50:51;;;;;;;13.48;6.97;;;;;;;5.36;48.27;100690.06;5040053;28;20045;-60
2022/03/10 03:53:23;;;;;;;12.27;6.70;;;;;;;5.34;47.76;100683.97;5039524;28;20045;-60
2022/03/10 03:55:54;;;;;;;11.63;6.03;;;;;;;5.34;46.98;100681.38;5039372;28;20121;-60
2022/03/10 03:58:25;;;;;;;14.27;7.28;;;;;;;5.37;47.48;100681.44;5039324;28;20061;-59
2022/03/10 04:00:56;;;;;;;14.93;6.30;;;;;;;5.41;47.47;100683.19;5039250;28;20049;-60
2022/03/10 04:03:27;;;;;;;14.93;7.22;;;;;;;5.34;47.98;100681.38;5039270;28;20057;-60
2022/03/10 04:05:58;;;;;;;16.42;6.55;;;;;;;5.32;47.37;100683.13;5039256;28;20058;-60
2022/03/10 04:08:31;;;;;;;14.10;6.88;;;;;;;5.37;48.15;100668.50;5039171;28;20045;-59
2022/03/10 04:11:01;;;;;;;10.90;6.03;;;;;;;5.38;47.43;100670.22;5039465;28;20120;-60
2022/03/10 04:13:32;;;;;;;13.10;5.53;;;;;;;5.33;46.75;100669.31;5039048;28;20072;-59
2022/03/10 04:16:03;;;;;;;10.50;5.03;;;;;;;5.23;46.43;100667.47;5039073;28;20077;-60
2022/03/10 04:18:37;;;;;;;9.82;5.53;;;;;;;5.12;45.52;100644.88;5038956;28;20116;-60
2022/03/10 04:21:08;;;;;;;12.77;6.30;;;;;;;5.22;46.45;100665.69;5038849;28;20081;-60
2022/03/10 04:23:40;;;;;;;9.95;4.90;;;;;;;5.23;45.79;100664.88;5038981;28;20064;-60
2022/03/10 04:26:11;;;;;;;8.25;4.90;;;;;;;5.27;46.30;100658.88;5039100;28;20057;-60
2022/03/10 04:28:42;;;;;;;12.85;5.13;;;;;;;5.30;46.33;100653.72;5038869;28;20080;-60
2022/03/10 04:31:13;;;;;;;11.05;5.32;;;;;;;5.32;46.13;100654.63;5038870;28;20081;-60
2022/03/10 04:33:43;;;;;;;10.77;5.47;;;;;;;5.27;45.71;100653.69;5038814;28;20063;-60
2022/03/10 04:36:14;;;;;;;12.65;5.03;;;;;;;5.17;46.71;100651.00;5038835;28;20121;-60
2022/03/10 04:38:46;;;;;;;9.82;5.10;;;;;;;5.12;47.05;100644.88;5037863;28;20037;-60
2022/03/10 04:41:17;;;;;;;10.00;5.35;;;;;;;5.15;46.74;100649.22;5038736;28;20092;-60
2022/03/10 04:43:48;;;;;;;12.02;5.88;;;;;;;4.98;47.10;100625.72;5038765;28;20340;-60
2022/03/10 04:46:19;;;;;;;11.88;5.78;;;;;;;5.16;47.32;100649.22;5038551;28;20064;-59
2022/03/10 04:48:50;;;;;;;14.38;5.60;;;;;;;5.14;47.41;100648.38;5038729;28;20056;-60
2022/03/10 04:51:20;;;;;;;12.68;5.50;;;;;;;5.15;47.43;100633.69;5038683;28;20357;-60
2022/03/10 04:53:53;;;;;;;13.15;5.38;;;;;;;5.12;47.28;100639.72;5038463;28;20121;-59
2022/03/10 04:56:23;;;;;;;12.77;6.07;;;;;;;5.13;47.21;100641.44;5038408;28;20443;-60
2022/03/10 04:58:54;;;;;;;13.20;6.80;;;;;;;5.07;46.78;100641.38;5038139;28;20064;-59
2022/03/10 05:01:25;;;;;;;13.73;5.95;;;;;;;5.04;47.19;100630.97;5038568;28;20049;-59
2022/03/10 05:03:56;;;;;;;11.57;5.65;;;;;;;5.03;47.32;100629.22;5038184;28;20057;-60
2022/03/10 05:06:29;;;;;;;11.73;5.68;;;;;;;5.07;47.13;100636.19;5038247;28;20049;-61
2022/03/10 05:09:01;;;;;;;13.20;5.93;;;;;;;5.05;47.23;100619.75;5037112;28;20045;-60
2022/03/10 05:11:34;;;;;;;15.52;6.55;;;;;;;4.82;47.71;100592.69;5034979;28;20132;-59
2022/03/10 05:14:05;;;;;;;11.52;6.07;;;;;;;5.02;47.99;100622.31;5029126;28;20046;-59
2022/03/10 05:16:36;;;;;;;14.15;5.53;;;;;;;5.00;47.85;100621.44;5020569;28;20054;-61
2022/03/10 05:19:07;;;;;;;12.13;5.80;;;;;;;5.02;46.94;100622.31;5026820;28;20057;-60
2022/03/10 05:21:37;;;;;;;13.68;5.43;;;;;;;4.93;46.77;100619.63;5018199;28;20116;-60
2022/03/10 05:24:12;;;;;;;11.82;5.72;;;;;;;4.86;46.25;100621.25;5017753;28;20088;-60
2022/03/10 05:26:42;;;;;;;12.60;6.63;;;;;;;4.89;46.55;100621.31;5031233;28;20118;-59
2022/03/10 05:29:13;;;;;;;11.50;6.70;;;;;;;4.91;46.03;100623.91;5036033;28;20603;-59
2022/03/10 05:31:44;;;;;;;15.57;5.55;;;;;;;4.95;45.93;100618.78;5023275;28;20061;-60
2022/03/10 05:34:15;;;;;;;8.95;5.43;;;;;;;4.94;46.19;100618.75;5024249;28;20093;-60
2022/03/10 05:36:45;;;;;;;8.75;5.00;;;;;;;4.87;45.35;100616.97;5024475;28;20287;-59
2022/03/10 05:39:17;;;;;;;7.40;4.40;;;;;;;4.73;44.88;100609.00;5024640;28;20053;-59
2022/03/10 05:41:48;;;;;;;7.65;4.38;;;;;;;4.71;45.21;100616.75;5024315;28;20045;-59
2022/03/10 05:44:19;;;;;;;8.05;4.32;;;;;;;4.61;44.26;100614.88;5024569;28;20266;-59
2022/03/10 05:46:50;;;;;;;9.95;4.80;;;;;;;4.50;45.04;100609.56;5024499;28;20053;-59
2022/03/10 05:49:21;;;;;;;14.15;5.45;;;;;;;4.54;45.73;100613.06;5024256;28;20061;-59
2022/03/10 05:51:52;;;;;;;12.90;5.30;;;;;;;4.54;46.04;100613.06;5024444;28;20132;-59
2022/03/10 05:54:24;;;;;;;12.40;4.60;;;;;;;4.51;47.03;100613.00;5023961;28;20136;-59
2022/03/10 05:56:54;;;;;;;13.95;5.68;;;;;;;3.95;48.27;100527.75;5024384;28;20068;-59
2022/03/10 05:59:25;;;;;;;14.15;6.13;;;;;;;4.39;48.85;100625.78;5023934;28;20049;-59
2022/03/10 06:01:56;;;;;;;14.20;6.40;;;;;;;4.36;49.15;100625.75;5023956;28;20323;-58
2022/03/10 06:04:27;;;;;;;13.73;6.70;;;;;;;3.77;50.21;100524.03;5023888;28;20053;-59
2022/03/10 06:06:57;;;;;;;18.52;6.78;;;;;;;4.33;50.18;100622.25;5024175;28;20045;-59
2022/03/10 06:09:30;;;;;;;24.48;7.45;;;;;;;4.33;50.62;100619.66;5023645;28;20776;-58
2022/03/10 06:12:00;;;;;;;25.42;8.63;;;;;;;4.29;51.79;100623.06;5023957;28;20046;-59
2022/03/10 06:14:31;;;;;;;20.38;7.82;;;;;;;4.19;52.32;100610.81;5024270;28;20380;-59
2022/03/10 06:17:02;;;;;;;21.25;9.15;;;;;;;4.13;52.81;100621.09;5023639;28;20066;-59
2022/03/10 06:19:33;;;;;;;23.50;8.10;;;;;;;4.06;52.93;100616.66;5023847;28;20061;-59
2022/03/10 06:22:03;;;;;;;16.23;7.13;;;;;;;3.95;53.04;100602.72;5023954;28;20073;-59
2022/03/10 06:24:36;;;;;;;17.30;8.10;;;;;;;4.03;53.90;100629.56;5024138;28;20109;-59
2022/03/10 06:27:06;;;;;;;20.52;7.90;;;;;;;3.99;53.76;100627.75;5024105;28;20060;-59
2022/03/10 06:29:39;;;;;;;22.60;9.20;;;;;;;3.91;54.57;100613.84;5023823;28;20049;-58
2022/03/10 06:32:12;;;;;;;25.67;9.73;;;;;;;3.64;55.26;100584.09;5023821;28;20061;-58
2022/03/10 06:34:43;;;;;;;29.65;10.88;;;;;;;3.85;55.75;100615.47;5023196;28;20054;-59
2022/03/10 06:37:14;;;;;;;19.75;8.10;;;;;;;3.76;56.70;100609.28;5023769;28;20113;-59
2022/03/10 06:39:47;;;;;;;20.15;8.15;;;;;;;3.22;57.49;100520.50;5023694;28;20616;-59
2022/03/10 06:42:17;;;;;;;28.50;10.60;;;;;;;3.75;57.70;100613.59;5023096;28;20113;-58
2022/03/10 06:44:48;;;;;;;23.50;9.65;;;;;;;3.67;58.39;100610.00;5023981;28;20056;-59
2022/03/10 06:47:19;;;;;;;30.88;10.70;;;;;;;3.68;58.75;100616.91;5023654;28;20052;-60
2022/03/10 06:49:50;;;;;;;27.58;11.50;;;;;;;3.66;58.56;100614.28;5023884;28;20802;-59
2022/03/10 06:52:20;;;;;;;35.58;11.80;;;;;;;3.61;59.32;100604.72;5023682;28;20068;-59
2022/03/10 06:54:53;;;;;;;30.73;10.60;;;;;;;3.55;58.94;100602.03;5023675;28;20054;-59
2022/03/10 06:57:23;;;;;;;21.13;8.80;;;;;;;3.52;59.20;100612.28;5023805;28;20050;-59
2022/03/10 06:59:54;;;;;;;27.45;11.40;;;;;;;3.51;59.10;100608.00;5023932;28;20049;-59
2022/03/10 07:02:25;;;;;;;37.70;13.13;;;;;;;3.20;59.24;100555.78;5026356;28;20116;-59
2022/03/10 07:04:56;;;;;;;28.05;11.48;;;;;;;3.22;59.88;100574.75;5027496;28;20698;-59
2022/03/10 07:07:26;;;;;;;25.80;9.52;;;;;;;3.38;60.19;100607.75;5027108;28;20081;-59
2022/03/10 07:09:58;;;;;;;28.00;11.70;;;;;;;2.76;60.69;100501.59;5027282;28;20346;-59
2022/03/10 07:12:29;;;;;;;32.70;12.90;;;;;;;3.30;61.03;100604.19;5027194;28;20051;-59
2022/03/10 07:15:00;;;;;;;29.00;9.95;;;;;;;3.29;61.72;100606.72;5026768;28;20124;-58
2022/03/10 07:17:30;;;;;;;26.17;9.20;;;;;;;3.19;61.94;100610.84;5026746;28;20049;-58
2022/03/10 07:20:01;;;;;;;21.85;9.10;;;;;;;2.91;62.29;100578.47;5026902;28;20049;-59
2022/03/10 07:22:32;;;;;;;24.27;9.70;;;;;;;3.05;62.71;100622.63;5026773;28;20054;-59
2022/03/10 07:25:05;;;;;;;26.27;9.98;;;;;;;2.93;63.30;100618.94;5027025;28;20064;-59
2022/03/10 07:27:36;;;;;;;36.67;12.20;;;;;;;2.92;63.73;100622.38;5026293;28;20045;-59
2022/03/10 07:30:08;;;;;;;23.65;10.20;;;;;;;2.87;63.67;100621.41;5026661;28;20046;-59
2022/03/10 07:32:39;;;;;;;24.40;10.05;;;;;;;2.71;64.15;100617.63;5027041;28;20057;-59
2022/03/10 07:35:10;;;;;;;25.17;10.38;;;;;;;2.57;65.00;100619.94;5027109;28;20108;-59
2022/03/10 07:37:41;;;;;;;29.48;11.98;;;;;;;2.52;65.08;100624.13;5026389;28;20049;-59
2022/03/10 07:40:14;;;;;;;25.10;10.18;;;;;;;2.50;65.47;100618.06;5026881;28;20054;-59
2022/03/10 07:42:45;;;;;;;23.48;9.60;;;;;;;2.36;66.02;100619.44;5026815;28;20336;-59
2022/03/10 07:45:16;;;;;;;22.85;10.55;;;;;;;2.28;66.85;100613.25;5026170;28;20061;-59
2022/03/10 07:47:48;;;;;;;27.40;11.73;;;;;;;2.15;67.17;100619.84;5046437;22;20120;-75
2022/03/10 07:50:19;;;;;;;45.35;15.07;;;;;;;1.97;67.58;100614.22;5043044;28;20047;-77
2022/03/10 07:52:49;;;;;;;42.83;14.88;;;;;;;1.90;68.23;100610.66;5043388;28;20059;-75
2022/03/10 07:55:21;;;;;;;49.58;17.10;;;;;;;1.90;68.36;100613.22;5043215;28;20152;-80
2022/03/10 07:57:52;;;;;;;39.58;14.63;;;;;;;1.80;68.92;100616.38;5043210;28;20104;-79
2022/03/10 08:00:24;;;;;;;42.05;14.57;;;;;;;1.70;69.16;100611.03;5042968;28;20045;-77
2022/03/10 08:02:54;;;;;;;38.05;14.43;;;;;;;1.60;69.30;100608.16;5042974;28;20045;-79
2022/03/10 08:05:25;;;;;;;30.33;12.60;;;;;;;1.54;69.61;100593.41;5041513;28;20096;-79
2022/03/10 08:07:56;;;;;;;23.60;12.15;;;;;;;1.54;70.00;100597.72;5042946;28;20060;-78
2022/03/10 08:10:28;;;;;;;29.30;13.07;;;;;;;1.39;69.95;100582.72;5042804;28;20136;-78
2022/03/10 08:12:59;;;;;;;49.67;16.58;;;;;;;1.42;70.12;100618.84;5042571;28;20045;-79
2022/03/10 08:15:30;;;;;;;38.35;16.20;;;;;;;1.28;70.62;100611.66;5042540;28;20286;-78
2022/03/10 08:18:01;;;;;;;46.85;16.35;;;;;;;1.14;71.20;100612.97;5043289;28;20049;-77
2022/03/10 08:20:31;;;;;;;40.83;17.02;;;;;;;1.07;71.45;100616.19;5043511;28;20080;-78
2022/03/10 08:23:02;;;;;;;37.05;15.38;;;;;;;0.94;72.06;100619.28;5042812;28;20052;-77
2022/03/10 08:25:34;;;;;;;29.23;13.43;;;;;;;0.75;72.00;100613.59;5043167;28;20333;-80
2022/03/10 08:28:06;;;;;;;34.25;13.43;;;;;;;0.63;72.61;100628.69;5042908;28;20045;-81
2022/03/10 08:30:37;;;;;;;42.10;15.88;;;;;;;0.56;73.21;100616.47;5040805;28;20109;-79
2022/03/10 08:33:08;;;;;;;28.92;14.20;;;;;;;0.52;73.01;100619.75;5042693;28;20045;-78
2022/03/10 08:35:38;;;;;;;32.78;13.95;;;;;;;0.35;73.31;100621.81;5042354;28;20057;-77
2022/03/10 08:38:09;;;;;;;34.28;14.02;;;;;;;0.30;73.46;100619.13;5036734;28;20049;-78
2022/03/10 08:40:41;;;;;;;31.75;15.65;;;;;;;0.13;73.69;100615.16;5026197;28;20041;-78
2022/03/10 08:43:13;;;;;;;46.28;21.25;;;;;;;0.14;73.84;100627.16;5040472;28;20112;-79
2022/03/10 08:45:44;;;;;;;43.10;18.00;;;;;;;0.01;74.16;100614.78;5041760;28;20083;-78
2022/03/10 08:48:15;;;;;;;66.88;22.73;;;;;;;-0.03;74.22;100617.22;5041993;28;20113;-80
2022/03/10 08:50:46;;;;;;;55.22;21.95;;;;;;;-0.07;74.53;100632.50;5042146;28;20053;-78
2022/03/10 08:53:17;;;;;;;65.13;22.60;;;;;;;-0.14;74.77;100631.41;5040053;28;20072;-81
2022/03/10 08:55:50;;;;;;;50.33;17.48;;;;;;;-0.20;75.34;100631.25;5042529;28;20113;-81
2022/03/10 08:58:24;;;;;;;48.38;17.20;;;;;;;-0.37;75.51;100620.41;5043158;28;20056;-82
2022/03/10 09:00:54;;;;;;;72.68;24.10;;;;;;;-0.30;75.76;100629.16;5036781;28;20049;-82
2022/03/10 09:03:46;;;;;;;57.35;21.73;;;;;;;-0.31;76.04;100637.69;5043235;28;20041;-80
2022/03/10 09:06:17;;;;;;;76.72;25.30;;;;;;;-0.36;76.35;100634.09;5044061;28;20073;-79
2022/03/10 09:08:48;;;;;;;61.58;23.35;;;;;;;-0.37;76.55;100642.63;5044233;28;20105;-80
2022/03/10 09:11:21;;;;;;;59.28;21.92;;;;;;;-0.44;76.56;100647.56;5047025;28;20109;-81
2022/03/10 09:13:51;;;;;;;52.47;20.05;;;;;;;-0.49;76.79;100635.38;5058012;28;20089;-80
2022/03/10 09:16:23;;;;;;;52.13;21.15;;;;;;;-0.54;76.95;100642.91;5056376;28;20037;-83
2022/03/10 09:18:54;;;;;;;45.83;21.30;;;;;;;-0.56;77.08;100654.81;5055548;28;20049;-82
2022/03/10 09:21:26;;;;;;;65.80;24.73;;;;;;;-0.59;77.38;100657.28;5055927;28;20048;-81
2022/03/10 09:23:57;;;;;;;43.35;18.83;;;;;;;-0.57;77.55;100653.09;5055106;28;20050;-78
2022/03/10 09:26:29;;;;;;;53.10;21.40;;;;;;;-0.60;77.76;100645.28;5055689;28;20069;-81
2022/03/10 09:29:00;;;;;;;65.65;25.33;;;;;;;-0.63;77.76;100645.16;5053011;28;20053;-81
2022/03/10 09:31:33;;;;;;;65.35;26.42;;;;;;;-0.67;77.49;100645.91;5054579;28;20041;-83
2022/03/10 09:34:04;;;;;;;46.08;19.83;;;;;;;-0.67;77.73;100648.47;5055689;28;20044;-81
2022/03/10 09:36:35;;;;;;;41.85;19.33;;;;;;;-0.72;78.27;100639.72;5055930;28;20030;-82
2022/03/10 09:39:09;;;;;;;48.90;20.52;;;;;;;-0.78;78.46;100635.22;5055358;28;20104;-81
2022/03/10 09:42:38;;;;;;;50.10;20.90;;;;;;;-1.92;78.80;100471.34;5048541;28;20080;-81
2022/03/10 09:45:13;;;;;;;82.32;26.35;;;;;;;-0.84;78.80;100634.16;5012183;28;20058;-82
2022/03/10 09:47:45;;;;;;;63.03;24.85;;;;;;;-0.88;78.84;100644.28;5036582;28;20061;-79
2022/03/10 09:50:17;;;;;;;60.45;24.40;;;;;;;-1.23;79.31;100585.72;5037957;28;20041;-79
2022/03/10 09:52:49;;;;;;;65.35;27.90;;;;;;;-1.23;79.12;100588.28;5040949;28;20349;-80
2022/03/10 09:55:20;;;;;;;65.03;28.33;;;;;;;-1.37;79.21;100578.41;5041344;28;20041;-80
2022/03/10 09:57:51;;;;;;;71.95;32.35;;;;;;;-0.91;79.18;100643.31;5040997;28;20041;-80
2022/03/10 10:00:23;;;;;;;68.00;30.15;;;;;;;-1.02;79.48;100625.00;5039129;28;20083;-78
2022/03/10 10:02:55;;;;;;;77.07;32.78;;;;;;;-0.85;79.41;100652.91;5041105;28;20233;-79
2022/03/10 10:05:28;;;;;;;75.00;32.03;;;;;;;-1.43;79.55;100560.22;5040931;28;20081;-79
2022/03/10 10:08:08;;;;;;;73.78;27.60;;;;;;;-1.12;79.54;100610.09;5041382;28;20088;-79
2022/03/10 10:10:40;;;;;;;86.75;33.88;;;;;;;-0.93;79.95;100643.25;5037388;28;20413;-81
2022/03/10 10:13:28;;;;;;;70.93;31.70;;;;;;;-1.00;80.09;100633.63;5037363;28;20053;-80
2022/03/10 10:16:05;;;;;;;70.63;30.48;;;;;;;-0.97;80.50;100637.97;5040792;28;20337;-80
2022/03/10 10:18:39;;;;;;;76.97;31.40;;;;;;;-0.99;80.72;100629.34;5040853;28;20056;-80
2022/03/10 10:21:18;;;;;;;61.30;26.88;;;;;;;-1.03;80.31;100633.47;5040459;28;20128;-78
2022/03/10 10:23:51;;;;;;;55.47;26.60;;;;;;;-1.12;80.56;100612.66;5037730;28;20061;-77
2022/03/10 10:26:26;;;;;;;56.55;25.55;;;;;;;-1.18;80.32;100597.03;5038278;28;20100;-77
2022/03/10 10:28:57;;;;;;;67.50;27.88;;;;;;;-0.99;80.44;100625.09;5040845;28;20065;-79
2022/03/10 10:31:30;;;;;;;61.30;26.77;;;;;;;-0.99;80.03;100617.41;5037827;28;20048;-80
2022/03/10 10:34:02;;;;;;;65.10;25.35;;;;;;;-1.18;80.25;100586.78;5039963;28;20072;-80
2022/03/10 10:36:37;;;;;;;61.22;24.88;;;;;;;-1.40;79.99;100545.00;5041745;28;20164;-80
2022/03/10 10:39:11;;;;;;;56.35;24.23;;;;;;;-1.32;80.15;100560.66;5041599;28;20042;-79
2022/03/10 10:41:45;;;;;;;61.92;25.13;;;;;;;-1.15;80.13;100587.78;5043503;28;20116;-80
2022/03/10 10:44:19;;;;;;;64.32;26.55;;;;;;;-1.03;79.78;100607.84;5042429;28;20049;-78
2022/03/10 10:46:58;;;;;;;67.05;27.75;;;;;;;-1.13;79.96;100601.50;5044327;28;20053;-79
2022/03/10 10:49:35;;;;;;;67.30;29.52;;;;;;;-1.21;79.99;100599.47;5044453;28;20057;-79
2022/03/10 10:52:13;;;;;;;68.10;30.15;;;;;;;-1.49;80.02;100554.03;5040294;28;20053;-79
2022/03/10 10:54:44;;;;;;;74.97;33.83;;;;;;;-1.21;80.14;100614.88;5043437;28;20333;-77
2022/03/10 10:57:23;;;;;;;74.13;31.45;;;;;;;-1.55;80.55;100559.78;5043131;28;20045;-78
2022/03/10 11:00:11;;;;;;;67.60;33.72;;;;;;;-1.25;80.78;100611.31;5039832;28;20113;-78
2022/03/10 11:02:44;;;;;;;68.35;30.25;;;;;;;-1.26;80.78;100608.69;5043990;28;20045;-77
2022/03/10 11:05:15;;;;;;;70.78;30.80;;;;;;;-1.33;80.64;100598.19;5044021;28;20092;-77
2022/03/10 11:07:46;;;;;;;59.38;28.40;;;;;;;-1.40;81.00;100588.56;5038045;28;20045;-77
2022/03/10 11:10:16;;;;;;;66.38;29.58;;;;;;;-1.24;80.67;100612.19;5043891;28;20049;-78
2022/03/10 11:12:47;;;;;;;65.90;29.13;;;;;;;-1.24;80.50;100607.06;5039147;28;20052;-77
2022/03/10 11:15:18;;;;;;;64.93;29.70;;;;;;;-1.26;80.68;100606.13;5043322;28;20045;-78
2022/03/10 11:17:50;;;;;;;64.60;30.50;;;;;;;-1.33;80.58;100608.47;5043339;28;20045;-77
2022/03/10 11:20:22;;;;;;;74.90;31.80;;;;;;;-1.34;80.39;100604.16;5043693;28;20045;-78
2022/03/10 11:23:06;;;;;;;69.47;30.58;;;;;;;-1.37;80.47;100598.94;5043525;28;20320;-77
2022/03/10 11:25:47;;;;;;;68.18;30.85;;;;;;;-1.49;80.35;100588.22;5042622;28;20057;-79
2022/03/10 11:28:21;;;;;;;69.63;30.08;;;;;;;-1.42;80.18;100605.56;5043392;28;20048;-80
2022/03/10 11:30:55;;;;;;;68.05;29.60;;;;;;;-1.40;80.52;100591.13;5043338;28;20396;-78
2022/03/10 11:33:34;;;;;;;82.70;36.35;;;;;;;-1.41;80.03;100597.06;5043314;28;20080;-78
2022/03/10 11:36:22;;;;;;;148.07;63.08;;;;;;;-1.74;80.09;100528.38;5043493;28;20284;-77
2022/03/10 11:38:54;;;;;;;72.63;32.85;;;;;;;-1.62;80.24;100537.31;5023588;28;20050;-77
2022/03/10 11:41:29;;;;;;;69.93;29.40;;;;;;;-1.35;79.69;100593.84;5024613;28;20538;-80
2022/03/10 11:44:02;;;;;;;69.47;29.15;;;;;;;-1.38;79.83;100594.59;5043397;28;20347;-79
2022/03/10 11:46:36;;;;;;;69.50;31.58;;;;;;;-2.11;79.42;100468.91;5042588;28;20053;-78